createdAt,value
2022-10-04T00:00:38.059Z,51.50
2022-10-04T00:04:07.334Z,51.60
2022-10-04T00:07:12.109Z,51.60
2022-10-04T00:10:32.142Z,51.50
2022-10-04T00:13:36.387Z,51.60
2022-10-04T00:16:40.017Z,51.60
2022-10-04T00:19:47.674Z,51.50
2022-10-04T00:23:24.793Z,51.50
2022-10-04T00:26:29.640Z,51.50
2022-10-04T00:29:31.355Z,51.50
2022-10-04T00:32:39.397Z,51.50
2022-10-04T00:35:44.092Z,51.50
2022-10-04T00:39:14.296Z,51.50
2022-10-04T00:43:01.149Z,51.40
2022-10-04T00:46:10.636Z,51.40
2022-10-04T00:49:13.638Z,51.40
2022-10-04T00:52:22.862Z,51.40
2022-10-04T00:55:42.555Z,51.40
2022-10-04T00:59:12.405Z,51.40
2022-10-04T01:02:31.274Z,51.40
2022-10-04T01:05:44.417Z,51.40
2022-10-04T01:08:51.417Z,51.40
2022-10-04T01:12:16.868Z,51.40
2022-10-04T01:15:41.212Z,51.40
2022-10-04T01:18:43.338Z,51.30
2022-10-04T01:21:47.100Z,51.30
2022-10-04T01:24:49.437Z,51.40
2022-10-04T01:27:52.807Z,51.90
2022-10-04T01:30:55.059Z,51.30
2022-10-04T01:33:57.753Z,51.30
2022-10-04T01:37:00.407Z,51.30
2022-10-04T01:40:02.877Z,51.30
2022-10-04T01:43:10.692Z,51.30
2022-10-04T01:46:33.523Z,51.20
2022-10-04T01:49:38.768Z,51.30
2022-10-04T01:52:45.436Z,51.20
2022-10-04T01:55:54.590Z,51.20
2022-10-04T01:59:06.053Z,51.20
2022-10-04T02:02:23.640Z,51.20
2022-10-04T02:05:40.332Z,51.20
2022-10-04T02:08:49.571Z,51.20
2022-10-04T02:11:54.569Z,51.20
2022-10-04T02:14:59.958Z,51.10
2022-10-04T02:18:02.047Z,51.10
2022-10-04T02:21:05.914Z,51.20
2022-10-04T02:24:09.337Z,51.10
2022-10-04T02:27:11.758Z,51.20
2022-10-04T02:30:14.358Z,51.10
2022-10-04T02:33:16.405Z,51.10
2022-10-04T02:36:19.154Z,51.10
2022-10-04T02:39:28.803Z,51.10
2022-10-04T02:42:40.016Z,51.10
2022-10-04T02:45:56.677Z,51.10
2022-10-04T02:49:14.071Z,51.10
2022-10-04T02:52:24.613Z,51.10
2022-10-04T02:55:33.402Z,51.10
2022-10-04T02:58:38.630Z,51.10
2022-10-04T03:01:52.683Z,51.10
2022-10-04T03:05:00.180Z,51.00
2022-10-04T03:08:03.922Z,51.00
2022-10-04T03:11:06.358Z,51.10
2022-10-04T03:14:13.921Z,51.00
2022-10-04T03:17:16.795Z,51.00
2022-10-04T03:20:21.200Z,50.90
2022-10-04T03:23:23.028Z,51.00
2022-10-04T03:26:32.665Z,50.90
2022-10-04T03:29:35.192Z,50.90
2022-10-04T03:32:38.630Z,51.00
2022-10-04T03:35:40.628Z,51.00
2022-10-04T03:38:43.249Z,51.00
2022-10-04T03:41:45.135Z,51.00
2022-10-04T03:44:49.275Z,51.00
2022-10-04T03:47:53.150Z,50.90
2022-10-04T03:50:55.463Z,51.00
2022-10-04T03:54:02.375Z,51.00
2022-10-04T03:57:06.537Z,51.00
2022-10-04T04:00:09.029Z,51.00
2022-10-04T04:03:20.350Z,50.90
2022-10-04T04:06:23.939Z,50.90
2022-10-04T04:09:38.227Z,50.90
2022-10-04T04:12:43.966Z,50.90
2022-10-04T04:15:46.999Z,50.80
2022-10-04T04:18:50.060Z,50.80
2022-10-04T04:21:54.772Z,50.80
2022-10-04T04:24:59.141Z,51.00
2022-10-04T04:28:07.592Z,50.80
2022-10-04T04:31:25.913Z,50.80
2022-10-04T04:34:33.934Z,50.70
2022-10-04T04:37:36.898Z,50.80
2022-10-04T04:40:38.771Z,50.80
2022-10-04T04:43:44.134Z,50.80
2022-10-04T04:46:47.633Z,50.80
2022-10-04T04:49:49.894Z,50.90
2022-10-04T04:52:57.427Z,50.90
2022-10-04T04:56:04.632Z,50.90
2022-10-04T04:59:07.420Z,51.00
2022-10-04T05:02:31.942Z,51.00
2022-10-04T05:05:35.613Z,51.00
2022-10-04T05:08:41.375Z,51.00
2022-10-04T05:11:43.557Z,51.00
2022-10-04T05:14:50.594Z,51.10
2022-10-04T05:17:52.771Z,51.10
2022-10-04T05:20:57.091Z,51.00
2022-10-04T05:24:09.650Z,51.00
2022-10-04T05:27:21.686Z,51.10
2022-10-04T05:30:38.883Z,51.00
2022-10-04T05:33:48.373Z,51.10
2022-10-04T05:36:58.179Z,51.10
2022-10-04T05:40:15.027Z,51.10
2022-10-04T05:43:44.049Z,51.00
2022-10-04T05:46:45.975Z,51.00
2022-10-04T05:49:48.286Z,51.00
2022-10-04T05:52:52.206Z,51.00
2022-10-04T05:56:18.535Z,51.00
2022-10-04T05:59:35.330Z,51.00
2022-10-04T06:03:21.013Z,51.00
2022-10-04T06:06:53.719Z,51.00
2022-10-04T06:10:07.133Z,50.90
2022-10-04T06:13:15.773Z,51.00
2022-10-04T06:16:17.505Z,51.00
2022-10-04T06:19:22.228Z,50.90
2022-10-04T06:22:26.663Z,50.30
2022-10-04T06:25:38.194Z,48.30
2022-10-04T06:28:52.248Z,49.30
2022-10-04T06:32:11.235Z,49.70
2022-10-04T06:35:31.195Z,49.70
2022-10-04T06:38:55.392Z,49.50
2022-10-04T06:42:13.703Z,49.00
2022-10-04T06:45:43.314Z,48.60
2022-10-04T06:49:22.580Z,47.90
2022-10-04T06:52:50.265Z,46.70
2022-10-04T06:56:08.385Z,46.10
2022-10-04T06:59:35.210Z,45.80
2022-10-04T07:02:46.356Z,45.20
2022-10-04T07:05:54.323Z,45.30
2022-10-04T07:09:02.448Z,44.90
2022-10-04T07:12:08.488Z,45.50
2022-10-04T07:15:19.589Z,45.50
2022-10-04T07:18:50.857Z,44.90
2022-10-04T07:22:08.355Z,43.20
2022-10-04T07:25:15.088Z,43.00
2022-10-04T07:28:42.102Z,43.30
2022-10-04T07:31:46.198Z,42.50
2022-10-04T07:34:51.455Z,42.50
2022-10-04T07:38:29.823Z,43.20
2022-10-04T07:42:09.828Z,44.20
2022-10-04T07:45:32.618Z,45.00
2022-10-04T07:48:34.419Z,45.50
2022-10-04T07:51:57.670Z,45.90
2022-10-04T07:55:28.574Z,46.10
2022-10-04T07:58:48.919Z,46.30
2022-10-04T08:02:17.839Z,46.50
2022-10-04T08:05:29.908Z,46.80
2022-10-04T08:08:45.522Z,47.00
2022-10-04T08:11:49.581Z,47.30
2022-10-04T08:15:14.909Z,47.30
2022-10-04T08:18:41.308Z,47.40
2022-10-04T08:22:01.943Z,47.70
2022-10-04T08:25:16.178Z,47.70
2022-10-04T08:29:04.949Z,47.80
2022-10-04T08:32:28.128Z,47.90
2022-10-04T08:35:39.784Z,48.10
2022-10-04T08:38:48.066Z,48.10
2022-10-04T08:41:58.697Z,48.10
2022-10-04T08:45:24.738Z,48.10
2022-10-04T08:48:53.670Z,48.10
2022-10-04T08:52:18.429Z,48.20
2022-10-04T08:55:44.064Z,48.20
2022-10-04T08:59:06.483Z,48.20
2022-10-04T09:02:28.418Z,48.20
2022-10-04T09:05:32.883Z,48.30
2022-10-04T09:08:56.229Z,48.20
2022-10-04T09:12:10.406Z,48.30
2022-10-04T09:15:26.949Z,48.40
2022-10-04T09:19:00.354Z,48.40
2022-10-04T09:22:22.820Z,48.40
2022-10-04T09:25:54.039Z,48.40
2022-10-04T09:29:33.010Z,48.50
2022-10-04T09:32:49.888Z,48.50
2022-10-04T09:36:17.751Z,48.50
2022-10-04T09:39:39.440Z,48.50
2022-10-04T09:43:21.531Z,48.50
2022-10-04T09:46:54.464Z,48.50
2022-10-04T09:50:42.060Z,48.50
2022-10-04T09:54:07.128Z,48.50
2022-10-04T09:57:39.033Z,48.40
2022-10-04T10:01:23.086Z,48.40
2022-10-04T10:05:08.993Z,48.50
2022-10-04T10:08:29.185Z,48.50
2022-10-04T10:11:55.915Z,48.50
2022-10-04T10:15:29.719Z,48.60
2022-10-04T10:19:01.710Z,48.60
2022-10-04T10:22:34.223Z,48.60
2022-10-04T10:25:52.945Z,48.80
2022-10-04T10:29:31.358Z,48.80
2022-10-04T10:32:54.879Z,48.90
2022-10-04T10:36:17.041Z,48.90
2022-10-04T10:40:00.024Z,49.50
2022-10-04T10:43:31.172Z,49.00
2022-10-04T10:46:47.523Z,49.00
2022-10-04T10:50:20.082Z,49.10
2022-10-04T10:54:10.456Z,49.10
2022-10-04T10:57:43.369Z,49.20
2022-10-04T11:01:02.107Z,49.20
2022-10-04T11:04:29.913Z,49.20
2022-10-04T11:07:43.703Z,49.30
2022-10-04T11:11:03.352Z,49.20
2022-10-04T11:14:23.825Z,49.20
2022-10-04T11:17:43.749Z,49.20
2022-10-04T11:21:28.054Z,49.10
2022-10-04T11:24:47.702Z,49.10
2022-10-04T11:28:39.099Z,49.10
2022-10-04T11:31:55.647Z,49.10
2022-10-04T11:35:31.042Z,49.00
2022-10-04T11:38:51.431Z,49.00
2022-10-04T11:42:18.540Z,49.00
2022-10-04T11:45:36.332Z,49.10
2022-10-04T11:48:38.336Z,49.10
2022-10-04T11:52:02.349Z,49.10
2022-10-04T11:55:27.151Z,49.00
2022-10-04T11:58:59.379Z,49.00
2022-10-04T12:02:19.750Z,49.00
2022-10-04T12:05:50.885Z,48.90
2022-10-04T12:09:09.833Z,48.90
2022-10-04T12:12:38.478Z,49.00
2022-10-04T12:16:04.721Z,49.00
2022-10-04T12:19:40.509Z,49.60
2022-10-04T12:23:00.293Z,49.00
2022-10-04T12:26:19.469Z,49.20
2022-10-04T12:30:15.171Z,49.20
2022-10-04T12:33:24.522Z,49.20
2022-10-04T12:36:38.476Z,49.80
2022-10-04T12:39:46.419Z,49.30
2022-10-04T12:43:00.328Z,49.30
2022-10-04T12:46:13.751Z,49.30
2022-10-04T12:49:43.228Z,49.30
2022-10-04T12:52:55.066Z,49.30
2022-10-04T12:56:19.013Z,49.40
2022-10-04T12:59:20.717Z,49.50
2022-10-04T13:02:48.854Z,49.50
2022-10-04T13:06:05.381Z,49.50
2022-10-04T13:09:13.163Z,49.60
2022-10-04T13:12:29.646Z,49.70
2022-10-04T13:20:00.836Z,49.70
2022-10-04T13:23:33.566Z,49.70
2022-10-04T13:26:58.597Z,49.80
2022-10-04T13:30:02.293Z,49.80
2022-10-04T13:33:32.762Z,49.80
2022-10-04T13:36:43.340Z,49.90
2022-10-04T13:39:57.278Z,49.90
2022-10-04T13:43:39.168Z,49.90
2022-10-04T13:47:05.466Z,50.00
2022-10-04T13:50:28.771Z,50.00
2022-10-04T13:54:27.072Z,50.00
2022-10-04T13:57:37.094Z,50.10
2022-10-04T14:00:50.920Z,50.10
2022-10-04T14:04:37.515Z,50.20
2022-10-04T14:08:09.251Z,50.20
2022-10-04T14:11:37.315Z,50.20
2022-10-04T14:15:07.460Z,50.20
2022-10-04T14:18:24.803Z,50.30
2022-10-04T14:21:34.849Z,50.30
2022-10-04T14:24:46.620Z,50.30
2022-10-04T14:28:09.843Z,50.40
2022-10-04T14:31:21.100Z,50.20
2022-10-04T14:34:36.799Z,50.20
2022-10-04T14:37:47.457Z,50.20
2022-10-04T14:41:19.171Z,50.30
2022-10-04T14:44:33.893Z,50.20
2022-10-04T14:48:13.200Z,50.20
2022-10-04T14:51:48.093Z,50.20
2022-10-04T14:55:07.697Z,50.20
2022-10-04T14:58:31.663Z,50.20
2022-10-04T15:01:35.722Z,50.20
2022-10-04T15:04:51.294Z,50.20
2022-10-04T15:08:12.276Z,50.20
2022-10-04T15:12:21.599Z,50.20
2022-10-04T15:15:27.427Z,50.10
2022-10-04T15:18:33.083Z,50.20
2022-10-04T15:21:34.713Z,50.20
2022-10-04T15:24:42.467Z,50.20
2022-10-04T15:27:52.703Z,50.00
2022-10-04T15:31:12.746Z,49.90
2022-10-04T15:34:51.876Z,49.90
2022-10-04T15:38:04.356Z,49.80
2022-10-04T15:41:33.740Z,49.90
2022-10-04T15:44:56.410Z,49.90
2022-10-04T15:48:11.122Z,49.90
2022-10-04T15:51:42.334Z,50.10
2022-10-04T15:55:02.956Z,50.10
2022-10-04T15:58:42.443Z,50.00
2022-10-04T16:01:55.035Z,50.10
2022-10-04T16:05:16.502Z,50.10
2022-10-04T16:08:28.555Z,50.20
2022-10-04T16:12:04.201Z,50.20
2022-10-04T16:15:35.219Z,50.20
2022-10-04T16:19:02.054Z,50.30
2022-10-04T16:22:21.036Z,50.40
2022-10-04T16:25:25.729Z,50.40
2022-10-04T16:28:53.058Z,50.30
2022-10-04T16:32:18.993Z,50.30
2022-10-04T16:35:25.704Z,50.50
2022-10-04T16:38:29.482Z,50.50
2022-10-04T16:42:06.048Z,50.40
2022-10-04T16:45:07.914Z,50.40
2022-10-04T16:48:12.624Z,50.50
2022-10-04T16:51:40.428Z,50.50
2022-10-04T16:55:03.467Z,50.60
2022-10-04T16:58:27.083Z,50.50
2022-10-04T17:01:34.651Z,50.50
2022-10-04T17:04:36.259Z,50.40
2022-10-04T17:08:04.738Z,50.50
2022-10-04T17:11:06.681Z,50.50
2022-10-04T17:14:30.218Z,50.40
2022-10-04T17:17:53.865Z,50.60
2022-10-04T17:21:37.369Z,50.50
2022-10-04T17:24:52.201Z,50.60
2022-10-04T17:28:00.476Z,50.50
2022-10-04T17:31:11.288Z,50.60
2022-10-04T17:34:40.701Z,50.50
2022-10-04T17:38:11.955Z,50.60
2022-10-04T17:41:18.985Z,50.50
2022-10-04T17:45:01.873Z,50.60
2022-10-04T17:48:34.847Z,50.80
2022-10-04T17:52:03.216Z,50.70
2022-10-04T17:55:17.669Z,50.80
2022-10-04T17:58:44.313Z,50.90
2022-10-04T18:01:51.786Z,50.90
2022-10-04T18:04:55.601Z,51.00
2022-10-04T18:08:08.432Z,50.80
2022-10-04T18:11:41.877Z,50.90
2022-10-04T18:15:26.583Z,50.90
2022-10-04T18:18:36.954Z,51.00
2022-10-04T18:21:49.014Z,51.60
2022-10-04T18:25:26.047Z,51.20
2022-10-04T18:28:27.903Z,51.00
2022-10-04T18:31:35.176Z,51.10
2022-10-04T18:34:37.302Z,51.00
2022-10-04T18:37:39.183Z,51.10
2022-10-04T18:40:42.783Z,51.10
2022-10-04T18:43:52.009Z,51.10
2022-10-04T18:46:57.711Z,50.90
2022-10-04T18:50:05.363Z,50.90
2022-10-04T18:53:24.816Z,51.00
2022-10-04T18:56:33.780Z,50.90
2022-10-04T19:00:20.523Z,51.00
2022-10-04T19:03:39.558Z,50.90
2022-10-04T19:06:44.775Z,51.00
2022-10-04T19:10:26.375Z,51.10
2022-10-04T19:13:43.447Z,51.00
2022-10-04T19:17:01.633Z,50.90
2022-10-04T19:20:24.748Z,50.90
2022-10-04T19:23:53.858Z,50.90
2022-10-04T19:27:10.755Z,51.10
2022-10-04T19:30:22.269Z,51.10
2022-10-04T19:34:02.926Z,51.20
2022-10-04T19:37:33.677Z,51.10
2022-10-04T19:40:50.235Z,51.20
2022-10-04T19:44:01.299Z,51.20
2022-10-04T19:47:20.133Z,51.20
2022-10-04T19:50:39.349Z,51.20
2022-10-04T19:53:45.594Z,51.20
2022-10-04T19:56:49.710Z,51.20
2022-10-04T19:59:51.474Z,51.20
2022-10-04T20:02:53.479Z,51.20
2022-10-04T20:05:55.449Z,51.20
2022-10-04T20:09:18.073Z,51.20
2022-10-04T20:12:40.722Z,51.20
2022-10-04T20:15:52.877Z,51.10
2022-10-04T20:18:59.533Z,51.20
2022-10-04T20:22:07.229Z,51.20
2022-10-04T20:25:10.243Z,51.30
2022-10-04T20:28:27.270Z,51.30
2022-10-04T20:31:29.040Z,51.30
2022-10-04T20:34:39.595Z,51.30
2022-10-04T20:37:44.028Z,51.30
2022-10-04T20:40:46.097Z,51.30
2022-10-04T20:44:33.915Z,51.30
2022-10-04T20:47:50.870Z,51.30
2022-10-04T20:50:53.680Z,51.20
2022-10-04T20:53:55.610Z,51.10
2022-10-04T20:56:57.680Z,51.10
2022-10-04T20:59:59.451Z,51.00
2022-10-04T21:03:13.109Z,51.00
2022-10-04T21:06:14.896Z,51.00
2022-10-04T21:09:16.677Z,51.00
2022-10-04T21:12:27.486Z,51.00
2022-10-04T21:15:29.166Z,51.00
2022-10-04T21:18:30.862Z,51.00
2022-10-04T21:21:48.745Z,51.00
2022-10-04T21:24:50.443Z,51.00
2022-10-04T21:27:52.155Z,51.00
2022-10-04T21:30:53.898Z,51.00
2022-10-04T21:33:55.624Z,50.90
2022-10-04T21:36:58.683Z,50.90
2022-10-04T21:40:00.698Z,50.90
2022-10-04T21:43:02.441Z,50.90
2022-10-04T21:46:04.439Z,50.90
2022-10-04T21:49:06.563Z,50.90
2022-10-04T21:52:08.692Z,50.90
2022-10-04T21:55:10.696Z,50.90
2022-10-04T21:58:12.605Z,50.90
2022-10-04T22:01:14.469Z,51.00
2022-10-04T22:04:16.502Z,51.00
2022-10-04T22:07:18.198Z,50.90
2022-10-04T22:10:19.968Z,50.90
2022-10-04T22:13:21.673Z,50.80
2022-10-04T22:16:23.413Z,50.90
2022-10-04T22:19:25.195Z,50.80
2022-10-04T22:22:29.561Z,50.80
2022-10-04T22:25:31.286Z,50.80
2022-10-04T22:28:33.948Z,50.80
2022-10-04T22:31:37.640Z,50.80
2022-10-04T22:34:41.210Z,50.70
2022-10-04T22:37:43.484Z,50.70
2022-10-04T22:40:45.219Z,50.70
2022-10-04T22:43:49.166Z,50.80
2022-10-04T22:46:53.922Z,50.70
2022-10-04T22:49:57.524Z,50.70
2022-10-04T22:53:12.582Z,50.70
2022-10-04T22:56:15.361Z,50.80
2022-10-04T22:59:19.617Z,50.70
2022-10-04T23:02:29.468Z,51.20
2022-10-04T23:05:31.245Z,50.80
2022-10-04T23:08:32.950Z,50.70
2022-10-04T23:11:34.701Z,50.70
2022-10-04T23:14:37.823Z,50.70
2022-10-04T23:17:39.934Z,50.60
2022-10-04T23:20:41.741Z,50.60
2022-10-04T23:23:43.463Z,50.60
2022-10-04T23:26:54.483Z,50.70
2022-10-04T23:30:02.778Z,50.70
2022-10-04T23:33:22.121Z,50.60
2022-10-04T23:36:23.892Z,50.60
2022-10-04T23:39:34.699Z,50.60
2022-10-04T23:42:36.903Z,50.60
2022-10-04T23:45:42.049Z,50.60
2022-10-04T23:48:45.023Z,50.60
2022-10-04T23:51:48.026Z,50.50
2022-10-04T23:54:51.462Z,50.50
2022-10-04T23:57:53.168Z,50.60
